Time;durP1;ratioP1;P1;durP2;ratioP2;P2;SDS_P1;SDS_P2;PMS_P1;PMS_P2;Temp;Humidity;BMP_temperature;BMP_pressure;BME280_temperature;BME280_humidity;BME280_pressure;Samples;Min_cycle;Max_cycle;Signal;HPM_P1;HPM_P2
2021/09/10 00:00:05;;;;;;;11.73;10.83;;;23.60;33.90;;;;;;4956863;28;20195;-70
2021/09/10 00:02:31;;;;;;;10.87;9.93;;;23.60;34.00;;;;;;4957451;28;20178;-70
2021/09/10 00:04:56;;;;;;;11.50;10.70;;;23.60;34.10;;;;;;4957352;29;20829;-70
2021/09/10 00:07:22;;;;;;;10.80;9.93;;;23.60;34.10;;;;;;4957697;29;20167;-70
2021/09/10 00:09:47;;;;;;;11.57;10.60;;;23.60;34.00;;;;;;4957161;29;20179;-71
2021/09/10 00:12:13;;;;;;;11.50;10.60;;;23.60;34.00;;;;;;4957458;28;20210;-70
2021/09/10 00:14:38;;;;;;;11.60;10.70;;;23.60;34.10;;;;;;4957095;29;20547;-70
2021/09/10 00:17:04;;;;;;;11.23;10.40;;;23.60;34.10;;;;;;4957445;29;20179;-70
2021/09/10 00:19:29;;;;;;;11.57;10.60;;;23.60;34.10;;;;;;4957125;29;20207;-70
2021/09/10 00:21:55;;;;;;;11.50;10.80;;;23.60;34.20;;;;;;4957113;28;20191;-69
2021/09/10 00:24:20;;;;;;;11.80;10.87;;;23.60;34.20;;;;;;4957057;29;20172;-70
2021/09/10 00:26:46;;;;;;;11.53;10.33;;;23.60;34.20;;;;;;4957175;28;20171;-70
2021/09/10 00:29:11;;;;;;;10.93;10.03;;;23.60;34.40;;;;;;4956892;29;20172;-70
2021/09/10 00:31:37;;;;;;;10.10;9.40;;;23.60;34.40;;;;;;4955022;28;20202;-70
2021/09/10 00:34:03;;;;;;;11.33;10.53;;;23.60;34.40;;;;;;4956605;29;20182;-70
2021/09/10 00:36:28;;;;;;;11.07;10.27;;;23.50;34.20;;;;;;4957049;28;20202;-70
2021/09/10 00:38:54;;;;;;;10.60;9.80;;;23.50;34.30;;;;;;4956906;29;20203;-70
2021/09/10 00:41:19;;;;;;;11.60;10.63;;;23.50;34.30;;;;;;4956824;28;20268;-70
2021/09/10 00:43:45;;;;;;;11.60;10.63;;;23.50;34.30;;;;;;4957079;28;20172;-70
2021/09/10 00:46:10;;;;;;;10.90;10.10;;;23.50;34.30;;;;;;4956921;29;20167;-70
2021/09/10 00:48:37;;;;;;;11.97;10.97;;;23.50;34.30;;;;;;4956795;29;20211;-69
2021/09/10 00:51:03;;;;;;;11.73;10.50;;;23.50;34.40;;;;;;4956589;28;20203;-70
2021/09/10 00:53:28;;;;;;;12.10;11.20;;;23.50;34.40;;;;;;4956811;28;20470;-69
2021/09/10 00:55:54;;;;;;;10.20;9.50;;;23.50;34.40;;;;;;4956627;29;20176;-68
2021/09/10 00:58:19;;;;;;;10.40;9.70;;;23.50;34.40;;;;;;4956685;29;20167;-68
2021/09/10 01:00:45;;;;;;;11.23;10.33;;;23.50;34.40;;;;;;4956072;28;20215;-70
2021/09/10 01:03:12;;;;;;;10.87;10.03;;;23.50;34.40;;;;;;4956438;28;20238;-69
2021/09/10 01:05:41;;;;;;;11.30;10.47;;;23.50;34.40;;;;;;4956345;28;20259;-69
2021/09/10 01:08:09;;;;;;;12.03;11.03;;;23.50;34.40;;;;;;4956606;28;20879;-70
2021/09/10 01:10:35;;;;;;;10.60;9.80;;;23.50;34.40;;;;;;4956151;28;20806;-70
2021/09/10 01:13:02;;;;;;;10.60;9.73;;;23.50;34.50;;;;;;4956400;28;20408;-70
2021/09/10 01:15:28;;;;;;;11.57;10.67;;;23.50;34.50;;;;;;4956208;28;20422;-70
2021/09/10 01:17:54;;;;;;;11.27;10.47;;;23.50;34.50;;;;;;4956392;28;20481;-70
2021/09/10 01:20:20;;;;;;;11.20;10.40;;;23.50;34.60;;;;;;4955959;28;20207;-70
2021/09/10 01:22:46;;;;;;;10.90;10.10;;;23.50;34.60;;;;;;4956135;28;20425;-70
2021/09/10 01:25:17;;;;;;;10.60;9.90;;;23.50;34.60;;;;;;4956017;29;20657;-70
2021/09/10 01:27:47;;;;;;;11.70;10.80;;;23.50;34.60;;;;;;4956175;28;20175;-69
2021/09/10 01:30:15;;;;;;;10.93;10.10;;;23.50;34.70;;;;;;4955754;28;20406;-69
2021/09/10 01:32:41;;;;;;;11.80;10.90;;;23.50;34.70;;;;;;4956081;28;20792;-70
2021/09/10 01:35:08;;;;;;;11.07;10.17;;;23.50;34.80;;;;;;4956099;28;20479;-69
2021/09/10 01:37:34;;;;;;;11.70;10.60;;;23.50;34.70;;;;;;4955875;28;20415;-70
2021/09/10 01:40:00;;;;;;;10.87;10.03;;;23.50;34.80;;;;;;4955455;28;20467;-70
2021/09/10 01:42:26;;;;;;;10.43;9.70;;;23.40;34.70;;;;;;4955397;28;20422;-69
2021/09/10 01:44:51;;;;;;;10.83;10.10;;;23.50;34.80;;;;;;4955856;28;20183;-70
2021/09/10 01:47:17;;;;;;;10.80;9.70;;;23.50;34.80;;;;;;4955544;28;20194;-70
2021/09/10 01:49:43;;;;;;;11.97;10.90;;;23.50;34.80;;;;;;4955441;29;20653;-70
2021/09/10 01:52:08;;;;;;;11.00;10.20;;;23.40;34.80;;;;;;4954936;28;20211;-70
2021/09/10 01:54:34;;;;;;;10.63;9.73;;;23.40;34.80;;;;;;4955188;29;20752;-70
2021/09/10 01:57:00;;;;;;;10.40;9.70;;;23.40;34.80;;;;;;4956215;28;20314;-70
2021/09/10 01:59:26;;;;;;;11.37;10.47;;;23.50;34.90;;;;;;4956142;29;20561;-70
2021/09/10 02:01:51;;;;;;;10.50;9.80;;;23.40;34.90;;;;;;4956308;28;20633;-69
2021/09/10 02:04:18;;;;;;;11.80;11.00;;;23.40;34.90;;;;;;4956613;28;20411;-70
2021/09/10 02:06:44;;;;;;;10.10;9.30;;;23.40;34.90;;;;;;4956065;28;20246;-70
2021/09/10 02:09:10;;;;;;;11.63;10.63;;;23.40;35.00;;;;;;4956172;28;20525;-70
2021/09/10 02:11:35;;;;;;;13.03;10.80;;;23.40;35.00;;;;;;4955895;28;20848;-69
2021/09/10 02:14:01;;;;;;;11.30;10.40;;;23.40;35.00;;;;;;4955596;29;20187;-70
2021/09/10 02:16:26;;;;;;;10.63;9.87;;;23.40;35.00;;;;;;4955101;29;20190;-70
2021/09/10 02:18:52;;;;;;;10.60;9.80;;;23.40;35.00;;;;;;4955026;29;20171;-70
2021/09/10 02:21:17;;;;;;;11.00;10.30;;;23.40;35.00;;;;;;4955204;28;20192;-70
2021/09/10 02:23:43;;;;;;;11.10;10.30;;;23.40;35.00;;;;;;4955410;29;20553;-69
2021/09/10 02:26:08;;;;;;;10.20;9.50;;;23.40;35.00;;;;;;4955200;29;20725;-70
2021/09/10 02:28:34;;;;;;;9.73;9.03;;;23.40;35.10;;;;;;4954984;28;20176;-69
2021/09/10 02:30:59;;;;;;;11.40;10.50;;;23.40;35.10;;;;;;4954959;28;20191;-70
2021/09/10 02:33:27;;;;;;;11.00;10.23;;;23.30;34.90;;;;;;4955114;29;20184;-70
2021/09/10 02:35:54;;;;;;;10.70;9.90;;;23.30;35.00;;;;;;4955285;28;20186;-70
2021/09/10 02:38:20;;;;;;;10.47;9.77;;;23.40;35.10;;;;;;4955088;28;20781;-69
2021/09/10 02:40:45;;;;;;;10.20;9.57;;;23.40;35.10;;;;;;4955465;28;20467;-70
2021/09/10 02:43:11;;;;;;;10.77;9.87;;;23.30;35.00;;;;;;4955380;28;20184;-70
2021/09/10 02:45:37;;;;;;;11.40;10.40;;;23.40;35.10;;;;;;4955807;29;20567;-70
2021/09/10 02:48:02;;;;;;;10.90;10.10;;;23.40;35.00;;;;;;4955611;29;20178;-70
2021/09/10 02:50:28;;;;;;;10.53;9.83;;;23.30;34.90;;;;;;4955306;28;20203;-70
2021/09/10 02:52:53;;;;;;;11.40;9.80;;;23.30;35.00;;;;;;4955453;29;20238;-70
2021/09/10 02:55:19;;;;;;;11.50;10.50;;;23.30;34.90;;;;;;4955042;28;20182;-70
2021/09/10 02:57:45;;;;;;;10.63;9.93;;;23.30;35.00;;;;;;4955323;28;20187;-71
2021/09/10 03:00:11;;;;;;;10.80;10.00;;;23.30;35.10;;;;;;4955032;28;20215;-71
2021/09/10 03:02:37;;;;;;;9.30;8.70;;;23.30;35.00;;;;;;4955225;28;20220;-70
2021/09/10 03:05:04;;;;;;;11.00;10.17;;;23.30;35.00;;;;;;4955095;29;20783;-70
2021/09/10 03:07:30;;;;;;;11.37;10.40;;;23.30;35.20;;;;;;4955116;28;20407;-71
2021/09/10 03:09:55;;;;;;;10.90;10.10;;;23.30;35.20;;;;;;4955014;29;20784;-69
2021/09/10 03:12:20;;;;;;;10.80;10.10;;;23.30;35.20;;;;;;4955236;28;20203;-70
2021/09/10 03:14:46;;;;;;;9.77;9.17;;;23.30;35.30;;;;;;4955020;28;20175;-70
2021/09/10 03:17:11;;;;;;;11.17;10.47;;;23.30;35.30;;;;;;4955358;29;20183;-70
2021/09/10 03:19:39;;;;;;;10.77;9.70;;;23.30;35.30;;;;;;4954080;29;20207;-70
2021/09/10 03:22:05;;;;;;;10.43;9.73;;;23.30;35.30;;;;;;4954448;28;20195;-70
2021/09/10 03:24:31;;;;;;;11.27;10.53;;;23.30;35.30;;;;;;4954280;28;20498;-70
2021/09/10 03:26:56;;;;;;;10.37;9.57;;;23.30;35.40;;;;;;4954409;29;20180;-70
2021/09/10 03:29:22;;;;;;;10.80;10.00;;;23.30;35.40;;;;;;4954004;29;20238;-69
2021/09/10 03:31:47;;;;;;;11.20;10.40;;;23.30;35.40;;;;;;4954182;28;20203;-70
2021/09/10 03:34:13;;;;;;;11.90;11.10;;;23.30;35.30;;;;;;4954362;29;20532;-70
2021/09/10 03:36:38;;;;;;;10.80;10.10;;;23.30;35.40;;;;;;4954511;28;20340;-70
2021/09/10 03:39:04;;;;;;;10.73;9.83;;;23.30;35.40;;;;;;4953854;29;20199;-69
2021/09/10 03:41:29;;;;;;;11.43;10.63;;;23.30;35.40;;;;;;4954136;28;20219;-70
2021/09/10 03:43:55;;;;;;;10.63;9.93;;;23.30;35.40;;;;;;4954346;29;20227;-70
2021/09/10 03:46:21;;;;;;;10.63;9.93;;;23.30;35.40;;;;;;4954441;29;20311;-69
2021/09/10 03:48:49;;;;;;;11.50;10.70;;;23.30;35.30;;;;;;4953871;28;20184;-69
2021/09/10 03:51:16;;;;;;;10.90;10.10;;;23.30;35.30;;;;;;4954112;28;20442;-69
2021/09/10 03:53:41;;;;;;;11.13;10.37;;;23.30;35.20;;;;;;4954074;28;20897;-69
2021/09/10 03:56:07;;;;;;;11.33;10.53;;;23.30;35.10;;;;;;4954254;28;20494;-69
2021/09/10 03:58:33;;;;;;;10.60;9.77;;;23.30;35.10;;;;;;4953593;28;20183;-68
2021/09/10 04:00:58;;;;;;;11.23;10.13;;;23.30;35.00;;;;;;4953823;28;20227;-70
2021/09/10 04:03:24;;;;;;;11.40;10.43;;;23.30;35.00;;;;;;4954092;29;20797;-70
2021/09/10 04:05:49;;;;;;;11.03;10.23;;;23.30;35.10;;;;;;4955452;28;20187;-70
2021/09/10 04:08:15;;;;;;;10.63;9.93;;;23.30;35.00;;;;;;4957377;28;20175;-68
2021/09/10 04:10:41;;;;;;;10.30;9.33;;;23.30;34.90;;;;;;4957273;28;20205;-69
2021/09/10 04:13:07;;;;;;;10.67;9.93;;;23.30;34.90;;;;;;4957662;28;20842;-69
2021/09/10 04:15:33;;;;;;;9.87;9.20;;;23.30;35.00;;;;;;4957414;28;20187;-69
2021/09/10 04:17:58;;;;;;;10.80;9.90;;;23.30;34.90;;;;;;4957342;29;20215;-69
2021/09/10 04:20:24;;;;;;;10.23;9.53;;;23.30;34.90;;;;;;4956676;28;20211;-71
2021/09/10 04:22:50;;;;;;;10.37;9.73;;;23.30;34.90;;;;;;4957274;29;20569;-69
2021/09/10 04:25:15;;;;;;;10.63;9.90;;;23.30;34.90;;;;;;4957131;29;20259;-69
2021/09/10 04:27:41;;;;;;;10.60;9.90;;;23.30;34.80;;;;;;4957474;29;20183;-69
2021/09/10 04:30:08;;;;;;;11.30;10.30;;;23.30;34.80;;;;;;4956850;28;20226;-69
2021/09/10 04:32:34;;;;;;;11.73;10.93;;;23.30;34.80;;;;;;4957162;28;20552;-69
2021/09/10 04:34:59;;;;;;;10.90;10.00;;;23.30;34.70;;;;;;4956943;28;20427;-70
2021/09/10 04:37:25;;;;;;;10.90;10.10;;;23.30;34.70;;;;;;4956159;29;20191;-69
2021/09/10 04:39:51;;;;;;;10.90;10.10;;;23.30;34.70;;;;;;4955046;28;20219;-70
2021/09/10 04:42:19;;;;;;;12.23;11.27;;;23.30;34.80;;;;;;4955999;28;20235;-70
2021/09/10 04:44:44;;;;;;;12.23;11.33;;;23.30;34.80;;;;;;4955896;28;20186;-70
2021/09/10 04:47:10;;;;;;;12.63;11.40;;;23.30;34.90;;;;;;4955946;29;20514;-70
2021/09/10 04:49:35;;;;;;;12.47;11.60;;;23.30;35.00;;;;;;4955758;29;20531;-70
2021/09/10 04:52:01;;;;;;;12.87;11.83;;;23.30;35.00;;;;;;4955722;28;20201;-70
2021/09/10 04:54:27;;;;;;;12.30;11.50;;;23.30;34.80;;;;;;4955676;28;20175;-71
2021/09/10 04:56:53;;;;;;;12.43;11.33;;;23.30;34.60;;;;;;4954391;29;20655;-70
2021/09/10 04:59:18;;;;;;;12.67;11.67;;;23.30;34.30;;;;;;4940187;28;20203;-69
2021/09/10 05:01:44;;;;;;;12.23;11.23;;;23.20;34.20;;;;;;4936341;29;20224;-70
2021/09/10 05:04:10;;;;;;;12.10;11.20;;;23.20;34.30;;;;;;4937077;29;20181;-72
2021/09/10 05:06:36;;;;;;;11.90;11.00;;;23.20;34.40;;;;;;4935349;29;20172;-67
2021/09/10 05:09:02;;;;;;;13.17;11.77;;;23.20;34.50;;;;;;4936032;29;20172;-69
2021/09/10 05:11:28;;;;;;;13.43;12.37;;;23.20;34.60;;;;;;4936413;29;20439;-68
2021/09/10 05:13:53;;;;;;;11.80;10.80;;;23.20;34.60;;;;;;4936680;29;20783;-68
2021/09/10 05:16:19;;;;;;;12.67;11.57;;;23.20;34.80;;;;;;4936454;29;20176;-67
2021/09/10 05:18:44;;;;;;;13.43;12.30;;;23.20;34.80;;;;;;4935357;29;20294;-69
2021/09/10 05:21:10;;;;;;;12.80;11.80;;;23.20;34.90;;;;;;4936192;29;20218;-70
2021/09/10 05:23:36;;;;;;;13.20;12.20;;;23.20;34.90;;;;;;4935985;29;20180;-67
2021/09/10 05:26:01;;;;;;;12.47;11.47;;;23.20;35.00;;;;;;4936199;29;20203;-68
2021/09/10 05:28:27;;;;;;;13.00;11.63;;;23.20;35.00;;;;;;4935939;29;20183;-67
2021/09/10 05:30:52;;;;;;;12.63;11.67;;;23.20;35.10;;;;;;4936159;29;20204;-68
2021/09/10 05:33:18;;;;;;;13.60;12.50;;;23.20;35.30;;;;;;4936063;29;20184;-68
2021/09/10 05:35:43;;;;;;;13.13;12.17;;;23.20;35.40;;;;;;4936145;29;20268;-66
2021/09/10 05:38:09;;;;;;;13.47;12.33;;;23.20;35.60;;;;;;4935858;29;20219;-68
2021/09/10 05:40:35;;;;;;;13.10;11.87;;;23.20;35.70;;;;;;4935804;29;20267;-69
2021/09/10 05:43:01;;;;;;;12.97;11.97;;;23.20;35.80;;;;;;4935927;29;20182;-72
2021/09/10 05:45:27;;;;;;;13.00;12.03;;;23.20;35.90;;;;;;4935916;29;20416;-69
2021/09/10 05:47:53;;;;;;;12.57;11.50;;;23.20;36.10;;;;;;4936260;29;20377;-68
2021/09/10 05:50:18;;;;;;;12.40;11.40;;;23.20;35.90;;;;;;4935446;29;20246;-68
2021/09/10 05:52:44;;;;;;;13.43;12.30;;;23.20;36.00;;;;;;4935725;29;20455;-67
2021/09/10 05:55:10;;;;;;;13.27;12.17;;;23.20;35.90;;;;;;4935718;29;20215;-68
2021/09/10 05:57:36;;;;;;;12.27;11.27;;;23.20;35.90;;;;;;4935814;29;20554;-69
2021/09/10 06:00:03;;;;;;;13.43;12.00;;;23.20;35.70;;;;;;4935075;29;20510;-67
2021/09/10 06:02:28;;;;;;;13.00;11.77;;;23.20;35.70;;;;;;4935647;29;20188;-67
2021/09/10 06:04:54;;;;;;;11.27;10.27;;;23.20;35.60;;;;;;4935642;29;20752;-67
2021/09/10 06:07:19;;;;;;;11.10;10.20;;;23.20;35.30;;;;;;4935850;29;20183;-69
2021/09/10 06:09:45;;;;;;;11.40;10.30;;;23.20;35.00;;;;;;4935415;29;20648;-69
2021/09/10 06:12:10;;;;;;;11.80;10.87;;;23.20;34.80;;;;;;4935411;29;20200;-69
2021/09/10 06:14:36;;;;;;;10.73;9.77;;;23.20;34.60;;;;;;4935280;29;20255;-69
2021/09/10 06:17:01;;;;;;;10.30;9.10;;;23.20;34.40;;;;;;4935347;29;20180;-69
2021/09/10 06:19:28;;;;;;;9.67;8.97;;;23.20;34.20;;;;;;4935001;29;20698;-69
2021/09/10 06:21:54;;;;;;;9.80;9.00;;;23.10;33.90;;;;;;4934949;29;20787;-69
2021/09/10 06:24:19;;;;;;;9.97;9.20;;;23.10;33.90;;;;;;4935347;29;20412;-68
2021/09/10 06:26:45;;;;;;;11.03;10.13;;;23.10;33.70;;;;;;4934918;29;20612;-67
2021/09/10 06:29:11;;;;;;;10.43;9.63;;;23.10;33.70;;;;;;4934134;29;20601;-68
2021/09/10 06:31:39;;;;;;;9.80;9.10;;;23.10;33.70;;;;;;4933802;29;20280;-68
2021/09/10 06:34:05;;;;;;;9.73;8.83;;;23.10;33.70;;;;;;4934522;29;20498;-68
2021/09/10 06:36:30;;;;;;;10.00;9.20;;;23.10;33.70;;;;;;4934681;29;20499;-67
2021/09/10 06:38:56;;;;;;;10.33;9.33;;;23.10;33.70;;;;;;4934480;29;20176;-67
2021/09/10 06:41:21;;;;;;;10.97;9.77;;;23.10;33.60;;;;;;4934599;29;20196;-66
2021/09/10 06:43:47;;;;;;;9.53;8.90;;;23.10;33.70;;;;;;4934788;29;20192;-67
2021/09/10 06:46:12;;;;;;;9.67;8.93;;;23.10;33.70;;;;;;4934883;29;20181;-67
2021/09/10 06:48:38;;;;;;;9.40;8.70;;;23.10;33.60;;;;;;4934624;29;20179;-68
2021/09/10 06:51:03;;;;;;;10.20;9.40;;;23.10;33.70;;;;;;4940589;29;20203;-66
2021/09/10 06:53:29;;;;;;;9.53;8.93;;;23.10;33.70;;;;;;4952467;29;20255;-68
2021/09/10 06:55:54;;;;;;;10.53;9.50;;;23.10;33.70;;;;;;4954034;29;20225;-68
2021/09/10 06:58:20;;;;;;;9.23;8.53;;;23.10;33.80;;;;;;4953013;29;20179;-67
2021/09/10 07:00:45;;;;;;;10.47;9.70;;;23.10;33.80;;;;;;4953566;28;20712;-69
2021/09/10 07:03:11;;;;;;;9.40;8.80;;;23.10;33.80;;;;;;4953512;29;20194;-68
2021/09/10 07:05:37;;;;;;;10.10;9.40;;;23.10;33.80;;;;;;4952298;28;20207;-68
2021/09/10 07:08:03;;;;;;;10.13;9.43;;;23.10;33.80;;;;;;4951773;29;20425;-67
2021/09/10 07:10:29;;;;;;;9.77;8.90;;;23.10;33.80;;;;;;4950540;28;20701;-68
2021/09/10 07:12:55;;;;;;;9.90;9.17;;;23.10;33.90;;;;;;4949660;28;20191;-68
2021/09/10 07:15:20;;;;;;;10.40;9.50;;;23.10;33.80;;;;;;4948478;29;20418;-68
2021/09/10 07:17:46;;;;;;;10.57;9.77;;;23.10;33.80;;;;;;4949335;29;20175;-68
2021/09/10 07:20:12;;;;;;;9.93;8.87;;;23.10;33.90;;;;;;4946618;28;20461;-67
2021/09/10 07:22:37;;;;;;;10.70;9.70;;;23.20;34.50;;;;;;4950100;28;20546;-68
2021/09/10 07:25:03;;;;;;;10.00;9.10;;;23.20;34.70;;;;;;4949836;29;20502;-69
2021/09/10 07:27:29;;;;;;;9.50;8.57;;;23.20;34.90;;;;;;4950006;28;20183;-67
2021/09/10 07:29:54;;;;;;;9.27;8.67;;;23.20;34.70;;;;;;4949534;29;20411;-68
2021/09/10 07:32:20;;;;;;;8.57;7.80;;;23.30;34.80;;;;;;4948377;28;20203;-68
2021/09/10 07:34:45;;;;;;;9.77;8.87;;;23.30;34.70;;;;;;4949509;28;20183;-68
2021/09/10 07:37:11;;;;;;;9.60;8.73;;;23.30;34.70;;;;;;4949536;29;20266;-68
2021/09/10 07:39:37;;;;;;;9.80;9.00;;;23.30;34.60;;;;;;4949374;28;20235;-68
2021/09/10 07:42:02;;;;;;;9.20;8.50;;;23.30;34.60;;;;;;4953253;28;20207;-68
2021/09/10 07:44:28;;;;;;;8.50;7.90;;;23.30;34.60;;;;;;4953570;29;20594;-68
2021/09/10 07:46:54;;;;;;;9.30;8.50;;;23.40;34.70;;;;;;4953287;29;20179;-67
2021/09/10 07:49:21;;;;;;;8.80;8.10;;;23.40;34.80;;;;;;4953375;28;20530;-68
2021/09/10 07:51:47;;;;;;;9.10;8.40;;;23.30;34.60;;;;;;4952835;28;20473;-67
2021/09/10 07:54:13;;;;;;;10.53;9.47;;;23.40;34.60;;;;;;4953435;28;20447;-68
2021/09/10 07:56:39;;;;;;;9.37;8.67;;;23.30;34.50;;;;;;4953374;28;20481;-68
2021/09/10 07:59:04;;;;;;;9.27;8.60;;;23.30;34.40;;;;;;4952850;29;20414;-68
2021/09/10 08:01:30;;;;;;;8.97;8.27;;;23.30;34.40;;;;;;4951074;28;20214;-67
2021/09/10 08:03:56;;;;;;;8.60;8.00;;;23.30;34.40;;;;;;4950436;28;20654;-68
2021/09/10 08:06:21;;;;;;;9.90;8.87;;;23.40;34.40;;;;;;4949832;29;20662;-68
2021/09/10 08:08:47;;;;;;;9.57;8.60;;;23.40;34.40;;;;;;4947520;29;20529;-68
2021/09/10 08:11:12;;;;;;;9.20;8.60;;;23.40;34.40;;;;;;4947682;28;20682;-68
2021/09/10 08:13:38;;;;;;;9.50;8.80;;;23.40;34.40;;;;;;4948549;29;20179;-68
2021/09/10 08:16:04;;;;;;;9.60;8.70;;;23.40;34.40;;;;;;4950820;29;20188;-68
2021/09/10 08:18:29;;;;;;;9.23;8.37;;;23.40;34.40;;;;;;4952309;28;20756;-68
2021/09/10 08:20:57;;;;;;;7.50;7.00;;;23.40;34.40;;;;;;4952546;28;20244;-68
2021/09/10 08:23:26;;;;;;;9.53;8.67;;;23.40;34.30;;;;;;4952632;28;20594;-67
2021/09/10 08:25:52;;;;;;;9.70;8.90;;;23.40;34.30;;;;;;4952620;29;20421;-68
2021/09/10 08:28:18;;;;;;;10.47;8.83;;;23.40;34.30;;;;;;4952480;28;20481;-68
2021/09/10 08:30:45;;;;;;;9.00;8.17;;;23.40;34.40;;;;;;4951979;28;20450;-68
2021/09/10 08:33:11;;;;;;;9.57;8.57;;;23.50;34.80;;;;;;4952093;28;20563;-68
2021/09/10 08:35:37;;;;;;;8.50;7.90;;;23.50;34.90;;;;;;4952126;28;20428;-67
2021/09/10 08:38:03;;;;;;;8.60;7.90;;;23.50;35.20;;;;;;4952196;29;20509;-68
2021/09/10 08:40:29;;;;;;;9.33;8.53;;;23.50;35.90;;;;;;4951549;29;20471;-68
2021/09/10 08:42:55;;;;;;;8.60;7.80;;;23.50;35.90;;;;;;4952309;28;20473;-68
2021/09/10 08:45:25;;;;;;;10.90;9.40;;;23.50;36.00;;;;;;4952017;28;20183;-69
2021/09/10 08:47:51;;;;;;;11.53;9.13;;;23.50;36.50;;;;;;4952129;28;20180;-68
2021/09/10 08:50:17;;;;;;;10.50;9.63;;;23.50;36.60;;;;;;4951885;28;20482;-66
2021/09/10 08:52:42;;;;;;;10.00;9.03;;;23.50;36.50;;;;;;4950991;28;20466;-67
2021/09/10 08:55:09;;;;;;;9.47;8.57;;;23.50;36.40;;;;;;4951983;28;20187;-67
2021/09/10 08:57:36;;;;;;;9.87;9.00;;;23.40;36.20;;;;;;4951969;28;20627;-67
2021/09/10 09:00:08;;;;;;;10.70;9.80;;;23.50;36.10;;;;;;4951289;28;20476;-66
2021/09/10 09:02:34;;;;;;;9.27;8.57;;;23.50;36.00;;;;;;4952012;28;20418;-66
2021/09/10 09:04:59;;;;;;;9.70;9.00;;;23.50;35.90;;;;;;4951922;29;20407;-68
2021/09/10 09:07:29;;;;;;;9.80;8.90;;;23.50;35.80;;;;;;4954818;29;20419;-67
2021/09/10 09:09:59;;;;;;;10.17;9.17;;;23.50;35.50;;;;;;4955167;29;20199;-67
2021/09/10 09:12:29;;;;;;;10.73;9.90;;;23.60;35.40;;;;;;4955794;29;20490;-66
2021/09/10 09:15:04;;;;;;;8.70;8.10;;;23.60;35.30;;;;;;4955731;28;20423;-67
2021/09/10 09:17:33;;;;;;;9.53;8.73;;;23.70;35.20;;;;;;4955260;28;20415;-67
2021/09/10 09:20:21;;;;;;;10.33;9.53;;;23.70;35.00;;;;;;4955516;28;20461;-66
2021/09/10 09:23:08;;;;;;;8.87;8.27;;;23.80;35.00;;;;;;4955389;28;20458;-67
2021/09/10 09:25:49;;;;;;;9.20;8.50;;;23.80;34.80;;;;;;4955260;28;20406;-67
2021/09/10 09:28:32;;;;;;;9.80;9.10;;;23.90;34.90;;;;;;4954982;28;20462;-66
2021/09/10 09:31:03;;;;;;;9.57;8.87;;;23.80;34.80;;;;;;4955165;28;20509;-67
2021/09/10 09:33:33;;;;;;;10.47;9.67;;;23.80;34.60;;;;;;4954822;28;20434;-67
2021/09/10 09:36:03;;;;;;;11.13;10.33;;;23.80;34.60;;;;;;4955176;28;20411;-68
2021/09/10 09:38:35;;;;;;;10.43;9.63;;;23.90;34.60;;;;;;4955017;28;20422;-68
2021/09/10 09:41:08;;;;;;;10.10;9.40;;;23.90;35.20;;;;;;4955023;28;20463;-67
2021/09/10 09:43:36;;;;;;;9.23;8.43;;;23.90;34.50;;;;;;4954989;28;20434;-68
2021/09/10 09:46:06;;;;;;;9.90;9.00;;;23.90;34.40;;;;;;4954757;28;20902;-68
2021/09/10 09:48:35;;;;;;;10.23;9.33;;;24.00;34.40;;;;;;4954764;29;20439;-68
2021/09/10 09:51:02;;;;;;;9.97;9.17;;;24.00;34.40;;;;;;4954649;28;20929;-67
2021/09/10 09:53:27;;;;;;;10.30;9.60;;;24.00;34.40;;;;;;4954874;28;20415;-68
2021/09/10 09:55:53;;;;;;;10.30;9.50;;;24.00;34.40;;;;;;4954729;29;20415;-67
2021/09/10 09:58:19;;;;;;;10.20;9.47;;;24.00;34.40;;;;;;4954626;29;20183;-65
2021/09/10 10:00:47;;;;;;;10.07;9.40;;;24.00;34.40;;;;;;4954574;28;20227;-66
2021/09/10 10:03:13;;;;;;;9.70;9.10;;;24.00;34.40;;;;;;4954395;28;20821;-66
2021/09/10 10:06:04;;;;;;;11.00;9.97;;;24.00;34.30;;;;;;4954611;29;20445;-67
2021/09/10 10:08:51;;;;;;;10.43;9.70;;;24.10;34.40;;;;;;4954387;28;20179;-67
2021/09/10 10:11:23;;;;;;;10.57;9.57;;;24.10;34.40;;;;;;4954258;28;20462;-67
2021/09/10 10:14:02;;;;;;;11.00;10.10;;;24.20;34.40;;;;;;4954316;28;20415;-64
2021/09/10 10:16:45;;;;;;;11.53;10.63;;;24.20;34.40;;;;;;4952611;28;20422;-67
2021/09/10 10:19:20;;;;;;;10.53;9.50;;;24.20;34.20;;;;;;4953813;28;20429;-67
2021/09/10 10:22:01;;;;;;;10.77;9.83;;;24.30;34.30;;;;;;4953876;29;20489;-66
2021/09/10 10:24:40;;;;;;;10.87;10.00;;;24.30;34.20;;;;;;4954404;28;20425;-67
2021/09/10 10:27:39;;;;;;;10.63;9.93;;;24.30;34.20;;;;;;4953898;28;20411;-66
2021/09/10 10:30:09;;;;;;;11.47;10.43;;;24.40;34.20;;;;;;4954121;28;20423;-66
2021/09/10 10:32:49;;;;;;;10.63;9.87;;;24.50;34.20;;;;;;4954058;28;20450;-68
2021/09/10 10:35:22;;;;;;;10.13;9.33;;;24.50;34.20;;;;;;4954112;28;20415;-67
2021/09/10 10:38:02;;;;;;;10.40;9.60;;;24.50;34.00;;;;;;4953892;29;20403;-67
2021/09/10 10:40:44;;;;;;;11.03;10.13;;;24.50;33.80;;;;;;4953532;29;20468;-66
2021/09/10 10:43:17;;;;;;;10.00;9.30;;;24.60;33.90;;;;;;4953823;28;20411;-68
2021/09/10 10:45:46;;;;;;;10.77;9.87;;;24.60;33.90;;;;;;4953888;29;20422;-67
2021/09/10 10:48:31;;;;;;;10.80;9.90;;;24.60;33.90;;;;;;4953870;28;20418;-67
2021/09/10 10:50:57;;;;;;;9.60;8.80;;;24.60;33.90;;;;;;4953517;29;20968;-65
2021/09/10 10:53:23;;;;;;;10.70;9.77;;;24.60;33.90;;;;;;4953734;28;20922;-66
2021/09/10 10:55:49;;;;;;;9.50;8.90;;;24.60;33.90;;;;;;4953467;29;20462;-66
2021/09/10 10:58:24;;;;;;;9.97;9.17;;;24.70;34.00;;;;;;4953632;29;20191;-66
2021/09/10 11:00:51;;;;;;;10.20;9.40;;;24.70;34.00;;;;;;4953131;28;20253;-65
2021/09/10 11:03:21;;;;;;;10.40;9.50;;;24.70;34.00;;;;;;4953193;29;20438;-66
2021/09/10 11:05:50;;;;;;;9.87;9.17;;;24.70;33.90;;;;;;4953499;28;20822;-65
2021/09/10 11:08:39;;;;;;;10.93;10.03;;;24.80;33.80;;;;;;4953464;28;20415;-65
2021/09/10 11:11:05;;;;;;;8.90;8.30;;;24.80;33.70;;;;;;4953476;28;20522;-64
2021/09/10 11:13:31;;;;;;;9.60;8.90;;;24.80;33.60;;;;;;4953383;29;20502;-65
2021/09/10 11:15:56;;;;;;;9.77;8.97;;;24.80;33.60;;;;;;4952850;29;20190;-66
2021/09/10 11:18:25;;;;;;;9.33;8.73;;;24.70;33.30;;;;;;4953342;28;20609;-65
2021/09/10 11:20:53;;;;;;;8.90;8.30;;;24.80;33.50;;;;;;4953267;29;20218;-64
2021/09/10 11:23:37;;;;;;;9.70;9.00;;;24.80;33.30;;;;;;4953562;28;20563;-65
2021/09/10 11:26:08;;;;;;;9.53;8.83;;;24.70;33.20;;;;;;4953191;28;20415;-66
2021/09/10 11:28:36;;;;;;;10.00;9.30;;;24.70;33.20;;;;;;4953126;28;20473;-66
2021/09/10 11:31:03;;;;;;;8.43;7.83;;;24.70;33.30;;;;;;4953442;28;20449;-65
2021/09/10 11:33:38;;;;;;;9.50;8.80;;;24.70;33.40;;;;;;4953296;28;20799;-67
2021/09/10 11:36:04;;;;;;;9.90;9.00;;;24.70;33.40;;;;;;4953470;29;20940;-64
2021/09/10 11:38:30;;;;;;;9.90;9.20;;;24.60;33.40;;;;;;4952766;29;20419;-67
2021/09/10 11:40:58;;;;;;;9.23;8.63;;;24.60;33.30;;;;;;4953358;28;20222;-66
2021/09/10 11:43:31;;;;;;;9.40;8.70;;;24.70;33.40;;;;;;4953061;28;20470;-66
2021/09/10 11:46:08;;;;;;;9.40;8.80;;;24.70;33.40;;;;;;4953328;28;20407;-65
2021/09/10 11:48:36;;;;;;;10.63;9.20;;;24.70;33.40;;;;;;4952862;28;20765;-67
2021/09/10 11:51:06;;;;;;;9.57;8.97;;;24.60;33.90;;;;;;4952936;28;20563;-67
2021/09/10 11:53:34;;;;;;;9.43;8.77;;;24.60;33.40;;;;;;4953281;28;20500;-68
2021/09/10 11:56:01;;;;;;;9.53;8.93;;;24.60;33.40;;;;;;4953223;28;20434;-66
2021/09/10 11:58:51;;;;;;;10.23;9.27;;;24.60;33.50;;;;;;4952949;28;20418;-66
2021/09/10 12:01:29;;;;;;;9.80;8.90;;;24.60;33.60;;;;;;4952923;28;20482;-65
2021/09/10 12:04:02;;;;;;;9.40;8.70;;;24.60;33.70;;;;;;4948898;28;20711;-70
2021/09/10 12:06:31;;;;;;;9.40;8.80;;;24.60;33.70;;;;;;4951736;29;20458;-65
2021/09/10 12:09:11;;;;;;;9.60;9.00;;;24.60;33.90;;;;;;4952692;28;20429;-64
2021/09/10 12:11:38;;;;;;;9.80;9.00;;;24.60;33.90;;;;;;4952168;28;20478;-64
2021/09/10 12:14:15;;;;;;;9.97;9.17;;;24.60;33.70;;;;;;4951363;29;20739;-65
2021/09/10 12:16:41;;;;;;;11.00;10.10;;;24.60;33.70;;;;;;4952490;29;20450;-65
2021/09/10 12:19:06;;;;;;;8.67;8.07;;;24.60;33.80;;;;;;4952422;28;20412;-68
2021/09/10 12:21:34;;;;;;;10.30;9.40;;;24.60;33.90;;;;;;4952002;28;20447;-70
2021/09/10 12:24:10;;;;;;;11.17;9.60;;;24.60;33.90;;;;;;4952915;28;20182;-69
2021/09/10 12:26:54;;;;;;;9.70;9.10;;;24.60;33.90;;;;;;4952689;28;20403;-68
2021/09/10 12:29:25;;;;;;;9.80;8.90;;;24.60;33.90;;;;;;4956080;28;20450;-72
2021/09/10 12:31:52;;;;;;;9.93;9.23;;;24.60;33.90;;;;;;4955009;28;20446;-69
2021/09/10 12:34:18;;;;;;;9.50;8.70;;;24.60;33.90;;;;;;4955885;28;20425;-72
2021/09/10 12:36:46;;;;;;;9.17;8.57;;;24.60;33.80;;;;;;4955821;28;20924;-70